sensor_id;sensor_type;location;lat;lon;timestamp;pressure;altitude;pressure_sealevel;temperature;humidity
32873;BME280;19224;52.462;16.898;2023-02-18T00:02:26;99691.13;;;8.29;94.38
32873;BME280;19224;52.462;16.898;2023-02-18T00:04:57;99685.12;;;8.24;94.00
32873;BME280;19224;52.462;16.898;2023-02-18T00:07:27;99693.59;;;8.14;95.33
32873;BME280;19224;52.462;16.898;2023-02-18T00:09:58;99714.23;;;8.23;95.48
32873;BME280;19224;52.462;16.898;2023-02-18T00:12:30;99714.31;;;8.10;96.17
32873;BME280;19224;52.462;16.898;2023-02-18T00:15:01;99705.80;;;7.91;97.42
32873;BME280;19224;52.462;16.898;2023-02-18T00:17:32;99703.73;;;8.07;95.99
32873;BME280;19224;52.462;16.898;2023-02-18T00:20:04;99736.84;;;8.06;95.93
32873;BME280;19224;52.462;16.898;2023-02-18T00:22:35;99718.67;;;8.03;96.11
32873;BME280;19224;52.462;16.898;2023-02-18T00:25:06;99698.76;;;7.98;97.10
32873;BME280;19224;52.462;16.898;2023-02-18T00:27:37;99700.59;;;7.88;97.42
32873;BME280;19224;52.462;16.898;2023-02-18T00:30:08;99768.48;;;8.08;96.06
32873;BME280;19224;52.462;16.898;2023-02-18T00:32:39;99698.16;;;8.02;96.12
32873;BME280;19224;52.462;16.898;2023-02-18T00:35:10;99706.00;;;7.86;96.44
32873;BME280;19224;52.462;16.898;2023-02-18T00:37:40;99707.12;;;7.71;98.04
32873;BME280;19224;52.462;16.898;2023-02-18T00:40:12;99716.71;;;7.76;98.04
32873;BME280;19224;52.462;16.898;2023-02-18T00:42:42;99708.48;;;7.91;96.84
32873;BME280;19224;52.462;16.898;2023-02-18T00:45:13;99703.60;;;7.80;97.07
32873;BME280;19224;52.462;16.898;2023-02-18T00:47:43;99732.53;;;7.72;97.11
32873;BME280;19224;52.462;16.898;2023-02-18T00:50:14;99724.02;;;7.83;96.95
32873;BME280;19224;52.462;16.898;2023-02-18T00:52:44;99720.63;;;7.79;97.31
32873;BME280;19224;52.462;16.898;2023-02-18T00:55:15;99754.89;;;7.61;98.37
32873;BME280;19224;52.462;16.898;2023-02-18T00:57:46;99738.97;;;7.68;97.88
32873;BME280;19224;52.462;16.898;2023-02-18T01:00:16;99715.31;;;7.78;97.16
32873;BME280;19224;52.462;16.898;2023-02-18T01:02:47;99722.09;;;7.66;98.00
32873;BME280;19224;52.462;16.898;2023-02-18T01:05:20;99728.11;;;7.71;98.13
32873;BME280;19224;52.462;16.898;2023-02-18T01:07:50;99714.45;;;7.67;98.75
32873;BME280;19224;52.462;16.898;2023-02-18T01:10:21;99726.41;;;7.59;98.38
32873;BME280;19224;52.462;16.898;2023-02-18T01:12:51;99730.25;;;7.73;97.67
32873;BME280;19224;52.462;16.898;2023-02-18T01:15:25;99748.07;;;7.74;96.74
32873;BME280;19224;52.462;16.898;2023-02-18T01:17:56;99731.98;;;7.74;97.44
32873;BME280;19224;52.462;16.898;2023-02-18T01:20:27;99748.45;;;7.65;97.99
32873;BME280;19224;52.462;16.898;2023-02-18T01:22:57;99736.29;;;7.68;97.35
32873;BME280;19224;52.462;16.898;2023-02-18T01:25:28;99777.42;;;7.67;97.40
32873;BME280;19224;52.462;16.898;2023-02-18T01:27:59;99724.77;;;7.66;97.84
32873;BME280;19224;52.462;16.898;2023-02-18T01:30:29;99734.39;;;7.60;98.07
32873;BME280;19224;52.462;16.898;2023-02-18T01:33:00;99748.99;;;7.63;97.44
32873;BME280;19224;52.462;16.898;2023-02-18T01:35:31;99745.64;;;7.58;98.22
32873;BME280;19224;52.462;16.898;2023-02-18T01:38:01;99737.52;;;7.60;97.92
32873;BME280;19224;52.462;16.898;2023-02-18T01:40:32;99742.75;;;7.53;98.49
32873;BME280;19224;52.462;16.898;2023-02-18T01:43:03;99748.91;;;7.55;98.03
32873;BME280;19224;52.462;16.898;2023-02-18T01:45:58;99755.16;;;7.55;98.30
32873;BME280;19224;52.462;16.898;2023-02-18T01:51:31;99741.30;;;7.34;99.87
32873;BME280;19224;52.462;16.898;2023-02-18T01:55:17;99742.69;;;7.33;99.50
32873;BME280;19224;52.462;16.898;2023-02-18T01:57:06;99727.88;;;7.24;100.00
32873;BME280;19224;52.462;16.898;2023-02-18T01:59:46;99734.97;;;7.25;100.00
32873;BME280;19224;52.462;16.898;2023-02-18T02:02:14;99757.60;;;7.28;100.00
32873;BME280;19224;52.462;16.898;2023-02-18T02:04:45;99732.30;;;7.25;100.00
32873;BME280;19224;52.462;16.898;2023-02-18T02:07:18;99723.59;;;7.30;100.00
32873;BME280;19224;52.462;16.898;2023-02-18T02:09:52;99723.11;;;7.09;100.00
32873;BME280;19224;52.462;16.898;2023-02-18T02:12:57;99766.30;;;7.12;100.00
32873;BME280;19224;52.462;16.898;2023-02-18T02:24:42;99755.06;;;7.14;100.00
32873;BME280;19224;52.462;16.898;2023-02-18T02:27:19;99728.06;;;7.08;100.00
32873;BME280;19224;52.462;16.898;2023-02-18T02:33:11;99741.41;;;6.98;100.00
32873;BME280;19224;52.462;16.898;2023-02-18T02:36:05;99728.55;;;7.08;100.00
32873;BME280;19224;52.462;16.898;2023-02-18T02:38:55;99733.68;;;7.03;100.00
32873;BME280;19224;52.462;16.898;2023-02-18T02:41:41;99729.98;;;7.05;100.00
32873;BME280;19224;52.462;16.898;2023-02-18T02:44:21;99753.22;;;7.04;100.00
32873;BME280;19224;52.462;16.898;2023-02-18T02:46:56;99773.35;;;7.14;100.00
32873;BME280;19224;52.462;16.898;2023-02-18T02:49:49;99740.91;;;7.10;100.00
32873;BME280;19224;52.462;16.898;2023-02-18T02:52:26;99747.34;;;7.06;100.00
32873;BME280;19224;52.462;16.898;2023-02-18T02:54:57;99737.97;;;7.06;100.00
32873;BME280;19224;52.462;16.898;2023-02-18T03:00:05;99745.55;;;7.07;100.00
32873;BME280;19224;52.462;16.898;2023-02-18T03:03:10;99754.44;;;7.07;100.00
32873;BME280;19224;52.462;16.898;2023-02-18T03:11:52;99767.73;;;7.20;100.00
32873;BME280;19224;52.462;16.898;2023-02-18T03:20:02;99780.41;;;7.27;100.00
32873;BME280;19224;52.462;16.898;2023-02-18T03:22:31;99794.42;;;7.23;100.00
32873;BME280;19224;52.462;16.898;2023-02-18T03:25:03;99766.13;;;7.16;100.00
32873;BME280;19224;52.462;16.898;2023-02-18T03:27:40;99773.58;;;7.08;100.00
32873;BME280;19224;52.462;16.898;2023-02-18T03:33:12;99780.77;;;7.29;100.00
32873;BME280;19224;52.462;16.898;2023-02-18T03:35:44;99768.31;;;7.28;99.95
32873;BME280;19224;52.462;16.898;2023-02-18T03:41:10;99779.56;;;7.26;100.00
32873;BME280;19224;52.462;16.898;2023-02-18T03:43:52;99783.09;;;7.27;99.63
32873;BME280;19224;52.462;16.898;2023-02-18T03:46:25;99779.38;;;7.19;99.75
32873;BME280;19224;52.462;16.898;2023-02-18T03:48:56;99773.67;;;7.28;99.92
32873;BME280;19224;52.462;16.898;2023-02-18T03:51:26;99787.59;;;7.26;99.93
32873;BME280;19224;52.462;16.898;2023-02-18T03:53:56;99765.67;;;7.38;98.97
32873;BME280;19224;52.462;16.898;2023-02-18T03:56:27;99790.37;;;7.35;99.03
32873;BME280;19224;52.462;16.898;2023-02-18T03:58:57;99789.56;;;7.33;99.10
32873;BME280;19224;52.462;16.898;2023-02-18T04:01:28;99783.53;;;7.16;100.00
32873;BME280;19224;52.462;16.898;2023-02-18T04:03:58;99808.89;;;7.29;99.08
32873;BME280;19224;52.462;16.898;2023-02-18T04:06:30;99805.94;;;7.25;99.49
32873;BME280;19224;52.462;16.898;2023-02-18T04:09:00;99789.24;;;7.19;99.71
32873;BME280;19224;52.462;16.898;2023-02-18T04:11:32;99785.71;;;7.07;100.00
32873;BME280;19224;52.462;16.898;2023-02-18T04:14:02;99789.64;;;7.20;99.77
32873;BME280;19224;52.462;16.898;2023-02-18T04:16:33;99809.50;;;7.14;100.00
32873;BME280;19224;52.462;16.898;2023-02-18T04:19:04;99800.58;;;7.25;99.35
32873;BME280;19224;52.462;16.898;2023-02-18T04:21:34;99804.47;;;7.28;99.23
32873;BME280;19224;52.462;16.898;2023-02-18T04:24:05;99808.80;;;7.21;98.69
32873;BME280;19224;52.462;16.898;2023-02-18T04:26:35;99820.80;;;7.22;98.96
32873;BME280;19224;52.462;16.898;2023-02-18T04:29:06;99810.58;;;7.20;99.09
32873;BME280;19224;52.462;16.898;2023-02-18T04:31:36;99801.21;;;7.20;99.31
32873;BME280;19224;52.462;16.898;2023-02-18T04:34:06;99803.74;;;7.13;99.59
32873;BME280;19224;52.462;16.898;2023-02-18T04:36:37;99798.26;;;7.16;99.61
32873;BME280;19224;52.462;16.898;2023-02-18T04:39:07;99806.95;;;7.11;99.82
32873;BME280;19224;52.462;16.898;2023-02-18T04:41:37;99806.16;;;7.31;98.32
32873;BME280;19224;52.462;16.898;2023-02-18T04:44:08;99814.68;;;7.19;98.57
32873;BME280;19224;52.462;16.898;2023-02-18T04:46:38;99820.09;;;7.17;98.87
32873;BME280;19224;52.462;16.898;2023-02-18T04:49:08;99815.33;;;7.03;99.87
32873;BME280;19224;52.462;16.898;2023-02-18T04:51:38;99836.16;;;7.17;98.70
32873;BME280;19224;52.462;16.898;2023-02-18T04:54:09;99815.44;;;7.22;97.59
32873;BME280;19224;52.462;16.898;2023-02-18T04:56:39;99873.34;;;7.25;97.56
32873;BME280;19224;52.462;16.898;2023-02-18T04:59:09;99825.39;;;7.19;98.08
32873;BME280;19224;52.462;16.898;2023-02-18T05:01:40;99839.41;;;7.14;98.90
32873;BME280;19224;52.462;16.898;2023-02-18T05:04:10;99856.41;;;7.13;98.58
32873;BME280;19224;52.462;16.898;2023-02-18T05:06:40;99817.30;;;6.98;99.58
32873;BME280;19224;52.462;16.898;2023-02-18T05:09:11;99825.47;;;7.06;99.78
32873;BME280;19224;52.462;16.898;2023-02-18T05:11:43;99838.77;;;7.07;99.29
32873;BME280;19224;52.462;16.898;2023-02-18T05:14:14;99826.27;;;7.08;99.21
32873;BME280;19224;52.462;16.898;2023-02-18T05:16:45;99847.98;;;7.01;99.69
32873;BME280;19224;52.462;16.898;2023-02-18T05:19:16;99845.58;;;6.82;100.00
32873;BME280;19224;52.462;16.898;2023-02-18T05:21:46;99847.55;;;6.99;100.00
32873;BME280;19224;52.462;16.898;2023-02-18T05:24:16;99856.35;;;6.92;100.00
32873;BME280;19224;52.462;16.898;2023-02-18T05:26:47;99865.36;;;6.78;100.00
32873;BME280;19224;52.462;16.898;2023-02-18T05:29:17;99855.55;;;6.77;100.00
32873;BME280;19224;52.462;16.898;2023-02-18T05:31:47;99860.12;;;6.86;100.00
32873;BME280;19224;52.462;16.898;2023-02-18T05:34:18;99857.78;;;6.89;100.00
32873;BME280;19224;52.462;16.898;2023-02-18T05:36:49;99851.73;;;6.84;100.00
32873;BME280;19224;52.462;16.898;2023-02-18T05:39:19;99886.73;;;6.91;100.00
32873;BME280;19224;52.462;16.898;2023-02-18T05:41:50;99859.64;;;6.87;100.00
32873;BME280;19224;52.462;16.898;2023-02-18T05:44:20;99867.19;;;6.76;100.00
32873;BME280;19224;52.462;16.898;2023-02-18T05:47:06;99866.29;;;6.88;100.00
32873;BME280;19224;52.462;16.898;2023-02-18T05:49:38;99872.45;;;6.79;100.00
32873;BME280;19224;52.462;16.898;2023-02-18T05:52:10;99878.13;;;6.70;100.00
32873;BME280;19224;52.462;16.898;2023-02-18T05:54:40;99880.57;;;6.76;100.00
32873;BME280;19224;52.462;16.898;2023-02-18T05:57:13;99882.63;;;6.81;100.00
32873;BME280;19224;52.462;16.898;2023-02-18T05:59:44;99901.94;;;6.77;100.00
32873;BME280;19224;52.462;16.898;2023-02-18T06:02:14;99880.98;;;6.77;100.00
32873;BME280;19224;52.462;16.898;2023-02-18T06:04:45;99891.06;;;6.57;100.00
32873;BME280;19224;52.462;16.898;2023-02-18T06:07:15;99877.16;;;6.59;100.00
32873;BME280;19224;52.462;16.898;2023-02-18T06:09:47;99878.37;;;6.87;100.00
32873;BME280;19224;52.462;16.898;2023-02-18T06:12:17;99879.03;;;6.93;100.00
32873;BME280;19224;52.462;16.898;2023-02-18T06:14:48;99883.89;;;6.82;100.00
32873;BME280;19224;52.462;16.898;2023-02-18T06:17:19;99881.63;;;6.72;100.00
32873;BME280;19224;52.462;16.898;2023-02-18T06:19:50;99920.02;;;6.71;100.00
32873;BME280;19224;52.462;16.898;2023-02-18T06:22:21;99889.65;;;6.72;100.00
32873;BME280;19224;52.462;16.898;2023-02-18T06:24:51;99896.86;;;6.70;100.00
32873;BME280;19224;52.462;16.898;2023-02-18T06:27:22;99913.57;;;6.76;100.00
32873;BME280;19224;52.462;16.898;2023-02-18T06:29:52;99908.87;;;6.83;100.00
32873;BME280;19224;52.462;16.898;2023-02-18T06:32:22;99909.97;;;6.89;100.00
32873;BME280;19224;52.462;16.898;2023-02-18T06:34:52;99906.20;;;6.83;100.00
32873;BME280;19224;52.462;16.898;2023-02-18T06:37:23;99915.64;;;6.68;100.00
32873;BME280;19224;52.462;16.898;2023-02-18T06:39:53;99905.70;;;6.72;100.00
32873;BME280;19224;52.462;16.898;2023-02-18T06:42:24;99912.52;;;6.80;100.00
32873;BME280;19224;52.462;16.898;2023-02-18T06:44:54;99905.30;;;6.71;100.00
32873;BME280;19224;52.462;16.898;2023-02-18T06:47:24;99911.39;;;6.87;100.00
32873;BME280;19224;52.462;16.898;2023-02-18T06:49:54;99924.27;;;6.76;100.00
32873;BME280;19224;52.462;16.898;2023-02-18T06:52:25;99923.59;;;6.83;100.00
32873;BME280;19224;52.462;16.898;2023-02-18T06:54:57;99924.89;;;6.96;100.00
32873;BME280;19224;52.462;16.898;2023-02-18T06:57:27;99914.83;;;6.91;100.00
32873;BME280;19224;52.462;16.898;2023-02-18T06:59:58;99915.28;;;6.90;100.00
32873;BME280;19224;52.462;16.898;2023-02-18T07:02:30;99917.80;;;6.95;100.00
32873;BME280;19224;52.462;16.898;2023-02-18T07:05:00;99916.58;;;6.92;100.00
32873;BME280;19224;52.462;16.898;2023-02-18T07:07:30;99917.59;;;6.88;100.00
32873;BME280;19224;52.462;16.898;2023-02-18T07:10:01;99930.41;;;6.91;100.00
32873;BME280;19224;52.462;16.898;2023-02-18T07:12:32;99941.77;;;6.98;100.00
32873;BME280;19224;52.462;16.898;2023-02-18T07:15:04;99926.27;;;6.83;100.00
32873;BME280;19224;52.462;16.898;2023-02-18T07:17:34;99921.81;;;6.95;100.00
32873;BME280;19224;52.462;16.898;2023-02-18T07:20:07;99934.09;;;7.00;100.00
32873;BME280;19224;52.462;16.898;2023-02-18T07:22:37;99931.21;;;6.82;100.00
32873;BME280;19224;52.462;16.898;2023-02-18T07:25:08;99925.13;;;6.90;100.00
32873;BME280;19224;52.462;16.898;2023-02-18T07:27:39;99926.31;;;7.05;100.00
32873;BME280;19224;52.462;16.898;2023-02-18T07:30:10;99942.78;;;7.06;100.00
32873;BME280;19224;52.462;16.898;2023-02-18T07:32:41;99936.61;;;7.04;100.00
32873;BME280;19224;52.462;16.898;2023-02-18T07:35:15;99927.28;;;7.03;100.00
32873;BME280;19224;52.462;16.898;2023-02-18T07:37:48;99953.33;;;7.11;100.00
32873;BME280;19224;52.462;16.898;2023-02-18T07:40:21;99938.96;;;7.13;100.00
32873;BME280;19224;52.462;16.898;2023-02-18T07:42:51;99920.50;;;7.17;100.00
32873;BME280;19224;52.462;16.898;2023-02-18T07:45:21;99934.30;;;7.18;100.00
32873;BME280;19224;52.462;16.898;2023-02-18T07:47:52;99928.20;;;7.26;100.00
32873;BME280;19224;52.462;16.898;2023-02-18T07:50:22;99930.77;;;7.18;100.00
32873;BME280;19224;52.462;16.898;2023-02-18T07:52:52;99952.34;;;7.13;100.00
32873;BME280;19224;52.462;16.898;2023-02-18T07:55:23;99911.38;;;7.11;100.00
32873;BME280;19224;52.462;16.898;2023-02-18T07:57:53;99938.10;;;7.24;100.00
32873;BME280;19224;52.462;16.898;2023-02-18T08:00:28;99942.33;;;7.18;100.00
32873;BME280;19224;52.462;16.898;2023-02-18T08:02:58;99927.19;;;7.17;100.00
32873;BME280;19224;52.462;16.898;2023-02-18T08:05:29;99946.20;;;7.34;99.80
32873;BME280;19224;52.462;16.898;2023-02-18T08:07:59;99926.34;;;7.17;100.00
32873;BME280;19224;52.462;16.898;2023-02-18T08:10:30;99923.72;;;7.38;99.28
32873;BME280;19224;52.462;16.898;2023-02-18T08:13:00;99945.14;;;7.38;99.21
32873;BME280;19224;52.462;16.898;2023-02-18T08:15:31;99913.75;;;7.30;100.00
32873;BME280;19224;52.462;16.898;2023-02-18T08:18:02;99938.98;;;7.36;99.52
32873;BME280;19224;52.462;16.898;2023-02-18T08:20:37;99916.34;;;7.33;99.28
32873;BME280;19224;52.462;16.898;2023-02-18T08:23:08;99919.53;;;7.43;99.57
32873;BME280;19224;52.462;16.898;2023-02-18T08:25:39;99924.00;;;7.42;99.04
32873;BME280;19224;52.462;16.898;2023-02-18T08:28:10;99924.23;;;7.48;98.92
32873;BME280;19224;52.462;16.898;2023-02-18T08:30:49;99910.51;;;7.45;99.27
32873;BME280;19224;52.462;16.898;2023-02-18T08:33:22;99921.52;;;7.61;98.32
32873;BME280;19224;52.462;16.898;2023-02-18T08:35:53;99927.86;;;7.58;97.19
32873;BME280;19224;52.462;16.898;2023-02-18T08:38:25;99941.53;;;7.62;97.53
32873;BME280;19224;52.462;16.898;2023-02-18T08:41:03;99922.90;;;7.59;97.40
32873;BME280;19224;52.462;16.898;2023-02-18T08:43:34;99924.52;;;7.63;97.76
32873;BME280;19224;52.462;16.898;2023-02-18T08:46:05;99939.56;;;7.67;97.77
32873;BME280;19224;52.462;16.898;2023-02-18T08:48:35;99940.20;;;7.74;97.15
32873;BME280;19224;52.462;16.898;2023-02-18T08:51:21;99945.61;;;7.84;96.19
32873;BME280;19224;52.462;16.898;2023-02-18T08:53:51;99927.91;;;7.68;96.44
32873;BME280;19224;52.462;16.898;2023-02-18T08:56:22;99928.71;;;7.59;97.36
32873;BME280;19224;52.462;16.898;2023-02-18T08:58:52;99948.97;;;7.77;97.39
32873;BME280;19224;52.462;16.898;2023-02-18T09:01:22;99918.80;;;7.84;96.22
32873;BME280;19224;52.462;16.898;2023-02-18T09:03:52;99917.42;;;7.95;95.53
32873;BME280;19224;52.462;16.898;2023-02-18T09:06:23;99918.94;;;7.91;94.53
32873;BME280;19224;52.462;16.898;2023-02-18T09:08:53;99929.97;;;7.95;94.70
32873;BME280;19224;52.462;16.898;2023-02-18T09:11:24;99949.86;;;7.99;94.68
32873;BME280;19224;52.462;16.898;2023-02-18T09:13:54;99921.88;;;7.85;95.62
32873;BME280;19224;52.462;16.898;2023-02-18T09:16:24;99923.59;;;7.97;95.96
32873;BME280;19224;52.462;16.898;2023-02-18T09:18:56;99922.23;;;8.09;95.63
32873;BME280;19224;52.462;16.898;2023-02-18T09:21:27;99924.39;;;8.22;94.09
32873;BME280;19224;52.462;16.898;2023-02-18T09:23:58;99921.03;;;8.27;92.40
32873;BME280;19224;52.462;16.898;2023-02-18T09:26:30;99945.65;;;8.15;93.23
32873;BME280;19224;52.462;16.898;2023-02-18T09:29:01;99916.27;;;8.24;92.46
32873;BME280;19224;52.462;16.898;2023-02-18T09:31:32;99904.00;;;8.07;94.06
32873;BME280;19224;52.462;16.898;2023-02-18T09:34:26;99908.10;;;8.15;93.15
32873;BME280;19224;52.462;16.898;2023-02-18T09:37:11;99903.14;;;8.16;93.38
32873;BME280;19224;52.462;16.898;2023-02-18T09:39:43;99899.25;;;8.35;91.08
32873;BME280;19224;52.462;16.898;2023-02-18T09:42:17;99899.81;;;8.21;91.52
32873;BME280;19224;52.462;16.898;2023-02-18T09:44:51;99901.16;;;8.21;91.38
32873;BME280;19224;52.462;16.898;2023-02-18T09:47:36;99894.07;;;8.30;91.39
32873;BME280;19224;52.462;16.898;2023-02-18T09:50:26;99916.06;;;8.50;88.16
32873;BME280;19224;52.462;16.898;2023-02-18T09:52:59;99886.55;;;8.50;88.08
32873;BME280;19224;52.462;16.898;2023-02-18T09:55:38;99888.93;;;8.46;87.33
32873;BME280;19224;52.462;16.898;2023-02-18T09:58:28;99888.28;;;8.51;88.15
32873;BME280;19224;52.462;16.898;2023-02-18T10:01:33;99888.34;;;8.49;88.53
32873;BME280;19224;52.462;16.898;2023-02-18T10:04:43;99882.28;;;8.54;88.10
32873;BME280;19224;52.462;16.898;2023-02-18T10:06:55;99874.53;;;8.58;87.67
32873;BME280;19224;52.462;16.898;2023-02-18T10:09:37;99870.75;;;8.52;88.15
32873;BME280;19224;52.462;16.898;2023-02-18T10:12:22;99902.17;;;8.60;87.30
32873;BME280;19224;52.462;16.898;2023-02-18T10:14:55;99864.30;;;8.66;84.86
32873;BME280;19224;52.462;16.898;2023-02-18T10:17:30;99875.05;;;8.86;83.28
32873;BME280;19224;52.462;16.898;2023-02-18T10:20:03;99873.30;;;8.85;82.88
32873;BME280;19224;52.462;16.898;2023-02-18T10:22:33;99868.32;;;8.96;82.17
32873;BME280;19224;52.462;16.898;2023-02-18T10:25:06;99847.22;;;9.07;81.61
32873;BME280;19224;52.462;16.898;2023-02-18T10:27:39;99841.64;;;9.12;81.18
32873;BME280;19224;52.462;16.898;2023-02-18T10:33:26;99836.81;;;9.10;77.88
32873;BME280;19224;52.462;16.898;2023-02-18T10:39:05;99824.98;;;9.32;78.08
32873;BME280;19224;52.462;16.898;2023-02-18T10:41:42;99823.16;;;9.51;76.35
32873;BME280;19224;52.462;16.898;2023-02-18T10:44:32;99821.25;;;9.44;76.25
32873;BME280;19224;52.462;16.898;2023-02-18T10:52:46;99802.50;;;9.61;74.33
32873;BME280;19224;52.462;16.898;2023-02-18T10:55:18;99800.27;;;9.61;73.26
32873;BME280;19224;52.462;16.898;2023-02-18T10:57:53;99784.91;;;9.46;76.21
32873;BME280;19224;52.462;16.898;2023-02-18T11:00:27;99803.69;;;9.64;75.26
32873;BME280;19224;52.462;16.898;2023-02-18T11:03:18;99786.38;;;9.43;76.60
32873;BME280;19224;52.462;16.898;2023-02-18T11:05:53;99779.13;;;9.45;77.28
32873;BME280;19224;52.462;16.898;2023-02-18T11:08:27;99791.70;;;9.53;77.57
32873;BME280;19224;52.462;16.898;2023-02-18T11:10:58;99785.75;;;9.46;78.36
32873;BME280;19224;52.462;16.898;2023-02-18T11:13:30;99757.55;;;9.55;79.06
32873;BME280;19224;52.462;16.898;2023-02-18T11:16:05;99772.09;;;9.78;77.50
32873;BME280;19224;52.462;16.898;2023-02-18T11:18:45;99750.81;;;9.73;76.71
32873;BME280;19224;52.462;16.898;2023-02-18T11:21:31;99742.58;;;9.76;76.88
32873;BME280;19224;52.462;16.898;2023-02-18T11:24:14;99752.39;;;9.86;75.40
32873;BME280;19224;52.462;16.898;2023-02-18T11:26:45;99725.03;;;9.86;77.41
32873;BME280;19224;52.462;16.898;2023-02-18T11:29:21;99745.73;;;10.03;75.70
32873;BME280;19224;52.462;16.898;2023-02-18T11:31:55;99720.77;;;9.91;75.23
32873;BME280;19224;52.462;16.898;2023-02-18T11:34:29;99705.72;;;9.87;75.20
32873;BME280;19224;52.462;16.898;2023-02-18T11:37:21;99705.79;;;9.68;76.41
32873;BME280;19224;52.462;16.898;2023-02-18T11:39:52;99695.20;;;9.74;77.52
32873;BME280;19224;52.462;16.898;2023-02-18T11:42:25;99680.28;;;10.02;76.39
32873;BME280;19224;52.462;16.898;2023-02-18T11:44:58;99662.66;;;10.05;75.61
32873;BME280;19224;52.462;16.898;2023-02-18T11:47:37;99666.56;;;9.81;76.51
32873;BME280;19224;52.462;16.898;2023-02-18T11:50:16;99660.89;;;9.79;77.65
32873;BME280;19224;52.462;16.898;2023-02-18T11:52:49;99653.06;;;9.74;77.16
32873;BME280;19224;52.462;16.898;2023-02-18T11:55:29;99655.03;;;9.71;78.67
32873;BME280;19224;52.462;16.898;2023-02-18T11:58:01;99643.95;;;9.68;78.34
32873;BME280;19224;52.462;16.898;2023-02-18T12:00:48;99652.56;;;9.75;79.08
32873;BME280;19224;52.462;16.898;2023-02-18T12:03:57;99632.48;;;9.56;79.68
32873;BME280;19224;52.462;16.898;2023-02-18T12:06:38;99637.95;;;9.72;81.02
32873;BME280;19224;52.462;16.898;2023-02-18T12:09:31;99631.84;;;9.43;83.86
32873;BME280;19224;52.462;16.898;2023-02-18T12:14:43;99626.52;;;9.25;87.50
32873;BME280;19224;52.462;16.898;2023-02-18T12:18:03;99623.72;;;9.01;90.18
32873;BME280;19224;52.462;16.898;2023-02-18T12:21:07;99623.66;;;9.11;90.96
32873;BME280;19224;52.462;16.898;2023-02-18T12:27:11;99635.45;;;8.90;94.91
32873;BME280;19224;52.462;16.898;2023-02-18T12:30:18;99621.70;;;8.60;99.01
32873;BME280;19224;52.462;16.898;2023-02-18T12:41:18;99622.75;;;8.19;100.00
32873;BME280;19224;52.462;16.898;2023-02-18T13:16:59;99578.95;;;7.01;100.00
32873;BME280;19224;52.462;16.898;2023-02-18T13:19:58;99574.59;;;6.77;100.00
32873;BME280;19224;52.462;16.898;2023-02-18T13:22:09;99578.91;;;6.81;100.00
32873;BME280;19224;52.462;16.898;2023-02-18T13:24:44;99588.91;;;6.76;100.00
32873;BME280;19224;52.462;16.898;2023-02-18T13:27:39;99575.45;;;6.67;100.00
32873;BME280;19224;52.462;16.898;2023-02-18T13:33:33;99581.02;;;6.73;100.00
32873;BME280;19224;52.462;16.898;2023-02-18T13:36:45;99578.91;;;6.81;100.00
32873;BME280;19224;52.462;16.898;2023-02-18T13:39:12;99579.64;;;6.63;100.00
32873;BME280;19224;52.462;16.898;2023-02-18T13:41:43;99578.07;;;6.69;100.00
32873;BME280;19224;52.462;16.898;2023-02-18T13:46:56;99579.11;;;6.32;100.00
32873;BME280;19224;52.462;16.898;2023-02-18T13:49:33;99585.22;;;6.35;100.00
32873;BME280;19224;52.462;16.898;2023-02-18T13:52:06;99585.62;;;6.48;100.00
32873;BME280;19224;52.462;16.898;2023-02-18T13:54:44;99572.33;;;6.35;100.00
32873;BME280;19224;52.462;16.898;2023-02-18T13:57:25;99569.30;;;6.21;100.00
32873;BME280;19224;52.462;16.898;2023-02-18T14:00:02;99563.95;;;6.21;100.00
32873;BME280;19224;52.462;16.898;2023-02-18T14:02:34;99572.85;;;6.10;100.00
32873;BME280;19224;52.462;16.898;2023-02-18T14:05:20;99578.08;;;6.24;100.00
32873;BME280;19224;52.462;16.898;2023-02-18T14:08:28;99580.16;;;6.16;100.00
32873;BME280;19224;52.462;16.898;2023-02-18T14:22:43;99568.12;;;5.83;100.00
32873;BME280;19224;52.462;16.898;2023-02-18T14:27:43;99568.56;;;5.83;100.00
32873;BME280;19224;52.462;16.898;2023-02-18T14:30:32;99562.41;;;5.81;100.00
32873;BME280;19224;52.462;16.898;2023-02-18T14:33:02;99548.81;;;5.87;100.00
32873;BME280;19224;52.462;16.898;2023-02-18T14:36:01;99550.92;;;6.02;100.00
32873;BME280;19224;52.462;16.898;2023-02-18T14:39:04;99536.84;;;5.97;100.00
32873;BME280;19224;52.462;16.898;2023-02-18T14:50:45;99509.17;;;5.75;100.00
32873;BME280;19224;52.462;16.898;2023-02-18T14:53:21;99517.81;;;5.58;100.00
32873;BME280;19224;52.462;16.898;2023-02-18T14:56:02;99512.71;;;5.64;100.00
32873;BME280;19224;52.462;16.898;2023-02-18T14:58:44;99507.79;;;5.76;100.00
32873;BME280;19224;52.462;16.898;2023-02-18T15:01:26;99499.16;;;5.81;100.00
32873;BME280;19224;52.462;16.898;2023-02-18T15:03:56;99495.63;;;5.81;100.00
32873;BME280;19224;52.462;16.898;2023-02-18T15:06:36;99489.05;;;5.78;100.00
32873;BME280;19224;52.462;16.898;2023-02-18T15:09:19;99491.48;;;5.72;100.00
32873;BME280;19224;52.462;16.898;2023-02-18T15:12:03;99492.06;;;5.69;100.00
32873;BME280;19224;52.462;16.898;2023-02-18T15:14:41;99496.88;;;5.71;100.00
32873;BME280;19224;52.462;16.898;2023-02-18T15:17:22;99495.94;;;5.72;100.00
32873;BME280;19224;52.462;16.898;2023-02-18T15:19:56;99493.48;;;5.66;100.00
32873;BME280;19224;52.462;16.898;2023-02-18T15:22:31;99495.69;;;5.55;100.00
32873;BME280;19224;52.462;16.898;2023-02-18T15:25:03;99494.41;;;5.42;100.00
32873;BME280;19224;52.462;16.898;2023-02-18T15:27:37;99497.61;;;5.40;100.00
32873;BME280;19224;52.462;16.898;2023-02-18T15:30:23;99504.16;;;5.43;100.00
32873;BME280;19224;52.462;16.898;2023-02-18T15:32:55;99495.00;;;5.50;100.00
32873;BME280;19224;52.462;16.898;2023-02-18T15:35:29;99498.25;;;5.46;100.00
32873;BME280;19224;52.462;16.898;2023-02-18T15:38:01;99489.47;;;5.43;100.00
32873;BME280;19224;52.462;16.898;2023-02-18T15:40:34;99496.58;;;5.55;100.00